sensor_id;sensor_type;location;lat;lon;timestamp;temperature;humidity
22558;DHT22;11445;53.816;8.902;2022-10-16T00:00:48;12.80;99.90
22558;DHT22;11445;53.816;8.902;2022-10-16T00:03:15;12.80;99.90
22558;DHT22;11445;53.816;8.902;2022-10-16T00:05:43;12.80;99.90
22558;DHT22;11445;53.816;8.902;2022-10-16T00:08:11;12.70;99.90
22558;DHT22;11445;53.816;8.902;2022-10-16T00:10:39;12.70;99.90
22558;DHT22;11445;53.816;8.902;2022-10-16T00:13:08;12.70;99.90
22558;DHT22;11445;53.816;8.902;2022-10-16T00:15:36;12.70;99.90
22558;DHT22;11445;53.816;8.902;2022-10-16T00:18:05;12.70;99.90
22558;DHT22;11445;53.816;8.902;2022-10-16T00:20:34;12.60;99.90
22558;DHT22;11445;53.816;8.902;2022-10-16T00:23:02;12.70;99.90
22558;DHT22;11445;53.816;8.902;2022-10-16T00:25:30;12.60;99.90
22558;DHT22;11445;53.816;8.902;2022-10-16T00:27:59;12.60;99.90
22558;DHT22;11445;53.816;8.902;2022-10-16T00:30:28;12.70;99.90
22558;DHT22;11445;53.816;8.902;2022-10-16T00:32:55;12.60;99.90
22558;DHT22;11445;53.816;8.902;2022-10-16T00:35:22;12.60;99.90
22558;DHT22;11445;53.816;8.902;2022-10-16T00:37:49;12.60;99.90
22558;DHT22;11445;53.816;8.902;2022-10-16T00:40:16;12.60;99.90
22558;DHT22;11445;53.816;8.902;2022-10-16T00:42:43;12.60;99.90
22558;DHT22;11445;53.816;8.902;2022-10-16T00:45:11;12.60;99.90
22558;DHT22;11445;53.816;8.902;2022-10-16T00:47:42;12.60;99.90
22558;DHT22;11445;53.816;8.902;2022-10-16T00:50:13;12.70;99.90
22558;DHT22;11445;53.816;8.902;2022-10-16T00:52:45;12.60;99.90
22558;DHT22;11445;53.816;8.902;2022-10-16T00:55:13;12.60;99.90
22558;DHT22;11445;53.816;8.902;2022-10-16T00:57:41;12.60;99.90
22558;DHT22;11445;53.816;8.902;2022-10-16T01:00:11;12.60;99.90
22558;DHT22;11445;53.816;8.902;2022-10-16T01:02:40;12.70;99.90
22558;DHT22;11445;53.816;8.902;2022-10-16T01:05:08;12.70;99.90
22558;DHT22;11445;53.816;8.902;2022-10-16T01:07:41;12.70;99.90
22558;DHT22;11445;53.816;8.902;2022-10-16T01:10:20;12.60;99.90
22558;DHT22;11445;53.816;8.902;2022-10-16T01:12:57;12.70;99.90
22558;DHT22;11445;53.816;8.902;2022-10-16T01:15:27;12.70;99.90
22558;DHT22;11445;53.816;8.902;2022-10-16T01:18:01;12.60;99.90
22558;DHT22;11445;53.816;8.902;2022-10-16T01:20:33;12.60;99.90
22558;DHT22;11445;53.816;8.902;2022-10-16T01:23:14;12.60;99.90
22558;DHT22;11445;53.816;8.902;2022-10-16T01:26:18;12.60;99.90
22558;DHT22;11445;53.816;8.902;2022-10-16T01:28:51;12.60;99.90
22558;DHT22;11445;53.816;8.902;2022-10-16T01:31:21;12.60;99.90
22558;DHT22;11445;53.816;8.902;2022-10-16T01:33:54;12.60;99.90
22558;DHT22;11445;53.816;8.902;2022-10-16T01:36:26;12.60;99.90
22558;DHT22;11445;53.816;8.902;2022-10-16T01:38:57;12.60;99.90
22558;DHT22;11445;53.816;8.902;2022-10-16T01:41:32;12.60;99.90
22558;DHT22;11445;53.816;8.902;2022-10-16T01:44:04;12.60;99.90
22558;DHT22;11445;53.816;8.902;2022-10-16T01:46:32;12.60;99.90
22558;DHT22;11445;53.816;8.902;2022-10-16T01:49:01;12.60;99.90
22558;DHT22;11445;53.816;8.902;2022-10-16T01:51:29;12.60;99.90
22558;DHT22;11445;53.816;8.902;2022-10-16T01:53:59;12.60;99.90
22558;DHT22;11445;53.816;8.902;2022-10-16T01:56:29;12.60;99.90
22558;DHT22;11445;53.816;8.902;2022-10-16T01:58:59;12.60;99.90
22558;DHT22;11445;53.816;8.902;2022-10-16T02:01:32;12.50;99.90
22558;DHT22;11445;53.816;8.902;2022-10-16T02:04:07;12.60;99.90
22558;DHT22;11445;53.816;8.902;2022-10-16T02:06:34;12.50;99.90
22558;DHT22;11445;53.816;8.902;2022-10-16T02:09:02;12.50;99.90
22558;DHT22;11445;53.816;8.902;2022-10-16T02:11:29;12.50;99.90
22558;DHT22;11445;53.816;8.902;2022-10-16T02:13:58;12.50;99.90
22558;DHT22;11445;53.816;8.902;2022-10-16T02:16:35;12.50;99.90
22558;DHT22;11445;53.816;8.902;2022-10-16T02:19:02;12.40;99.90
22558;DHT22;11445;53.816;8.902;2022-10-16T02:21:35;12.50;99.90
22558;DHT22;11445;53.816;8.902;2022-10-16T02:24:09;12.40;99.90
22558;DHT22;11445;53.816;8.902;2022-10-16T02:26:45;12.40;99.90
22558;DHT22;11445;53.816;8.902;2022-10-16T02:29:17;12.40;99.90
22558;DHT22;11445;53.816;8.902;2022-10-16T02:31:54;12.40;99.90
22558;DHT22;11445;53.816;8.902;2022-10-16T02:34:23;12.30;99.90
22558;DHT22;11445;53.816;8.902;2022-10-16T02:36:52;12.30;99.90
22558;DHT22;11445;53.816;8.902;2022-10-16T02:39:20;12.30;99.90
22558;DHT22;11445;53.816;8.902;2022-10-16T02:41:47;12.30;99.90
22558;DHT22;11445;53.816;8.902;2022-10-16T02:44:15;12.30;99.90
22558;DHT22;11445;53.816;8.902;2022-10-16T02:46:42;12.30;99.90
22558;DHT22;11445;53.816;8.902;2022-10-16T02:49:10;12.20;99.90
22558;DHT22;11445;53.816;8.902;2022-10-16T02:51:37;12.20;99.90
22558;DHT22;11445;53.816;8.902;2022-10-16T02:54:04;12.20;99.90
22558;DHT22;11445;53.816;8.902;2022-10-16T02:56:31;12.20;99.90
22558;DHT22;11445;53.816;8.902;2022-10-16T02:58:58;12.20;99.90
22558;DHT22;11445;53.816;8.902;2022-10-16T03:01:25;12.20;99.90
22558;DHT22;11445;53.816;8.902;2022-10-16T03:03:52;12.20;99.90
22558;DHT22;11445;53.816;8.902;2022-10-16T03:06:21;12.10;99.90
22558;DHT22;11445;53.816;8.902;2022-10-16T03:08:48;12.20;99.90
22558;DHT22;11445;53.816;8.902;2022-10-16T03:11:15;12.10;99.90
22558;DHT22;11445;53.816;8.902;2022-10-16T03:13:42;12.20;99.90
22558;DHT22;11445;53.816;8.902;2022-10-16T03:16:09;12.10;99.90
22558;DHT22;11445;53.816;8.902;2022-10-16T03:18:36;12.20;99.90
22558;DHT22;11445;53.816;8.902;2022-10-16T03:21:03;12.20;99.90
22558;DHT22;11445;53.816;8.902;2022-10-16T03:23:32;12.20;99.90
22558;DHT22;11445;53.816;8.902;2022-10-16T03:25:59;12.10;99.90
22558;DHT22;11445;53.816;8.902;2022-10-16T03:28:26;12.20;99.90
22558;DHT22;11445;53.816;8.902;2022-10-16T03:30:53;12.20;99.90
22558;DHT22;11445;53.816;8.902;2022-10-16T03:33:20;12.20;99.90
22558;DHT22;11445;53.816;8.902;2022-10-16T03:35:51;12.20;99.90
22558;DHT22;11445;53.816;8.902;2022-10-16T03:38:19;12.20;99.90
22558;DHT22;11445;53.816;8.902;2022-10-16T03:40:47;12.30;99.90
22558;DHT22;11445;53.816;8.902;2022-10-16T03:43:14;12.30;99.90
22558;DHT22;11445;53.816;8.902;2022-10-16T03:45:41;12.30;99.90
22558;DHT22;11445;53.816;8.902;2022-10-16T03:48:08;12.30;99.90
22558;DHT22;11445;53.816;8.902;2022-10-16T03:50:35;12.30;99.90
22558;DHT22;11445;53.816;8.902;2022-10-16T03:53:02;12.30;99.90
22558;DHT22;11445;53.816;8.902;2022-10-16T03:55:29;12.40;99.90
22558;DHT22;11445;53.816;8.902;2022-10-16T03:57:58;12.40;99.90
22558;DHT22;11445;53.816;8.902;2022-10-16T04:00:25;12.40;99.90
22558;DHT22;11445;53.816;8.902;2022-10-16T04:02:52;12.40;99.90
22558;DHT22;11445;53.816;8.902;2022-10-16T04:05:19;12.40;99.90
22558;DHT22;11445;53.816;8.902;2022-10-16T04:07:46;12.40;99.90
22558;DHT22;11445;53.816;8.902;2022-10-16T04:10:13;12.40;99.90
22558;DHT22;11445;53.816;8.902;2022-10-16T04:12:40;12.50;99.90
22558;DHT22;11445;53.816;8.902;2022-10-16T04:15:09;12.50;99.90
22558;DHT22;11445;53.816;8.902;2022-10-16T04:17:36;12.50;99.90
22558;DHT22;11445;53.816;8.902;2022-10-16T04:20:04;12.50;99.90
22558;DHT22;11445;53.816;8.902;2022-10-16T04:22:32;12.50;99.90
22558;DHT22;11445;53.816;8.902;2022-10-16T04:24:58;12.50;99.90
22558;DHT22;11445;53.816;8.902;2022-10-16T04:27:25;12.50;99.90
22558;DHT22;11445;53.816;8.902;2022-10-16T04:29:53;12.50;99.90
22558;DHT22;11445;53.816;8.902;2022-10-16T04:32:22;12.50;99.90
22558;DHT22;11445;53.816;8.902;2022-10-16T04:34:49;12.50;99.90
22558;DHT22;11445;53.816;8.902;2022-10-16T04:37:16;12.60;99.90
22558;DHT22;11445;53.816;8.902;2022-10-16T04:39:43;12.60;99.90
22558;DHT22;11445;53.816;8.902;2022-10-16T04:42:10;12.50;99.90
22558;DHT22;11445;53.816;8.902;2022-10-16T04:44:38;12.50;99.90
22558;DHT22;11445;53.816;8.902;2022-10-16T04:47:05;12.60;99.90
22558;DHT22;11445;53.816;8.902;2022-10-16T04:49:33;12.50;99.90
22558;DHT22;11445;53.816;8.902;2022-10-16T04:52:00;12.60;99.90
22558;DHT22;11445;53.816;8.902;2022-10-16T04:54:27;12.50;99.90
22558;DHT22;11445;53.816;8.902;2022-10-16T04:56:54;12.50;99.90
22558;DHT22;11445;53.816;8.902;2022-10-16T04:59:21;12.50;99.90
22558;DHT22;11445;53.816;8.902;2022-10-16T05:01:48;12.50;99.90
22558;DHT22;11445;53.816;8.902;2022-10-16T05:04:16;12.50;99.90
22558;DHT22;11445;53.816;8.902;2022-10-16T05:06:44;12.50;99.90
22558;DHT22;11445;53.816;8.902;2022-10-16T05:09:11;12.50;99.90
22558;DHT22;11445;53.816;8.902;2022-10-16T05:11:38;12.50;99.90
22558;DHT22;11445;53.816;8.902;2022-10-16T05:14:05;12.50;99.90
22558;DHT22;11445;53.816;8.902;2022-10-16T05:16:32;12.50;99.90
22558;DHT22;11445;53.816;8.902;2022-10-16T05:18:59;12.50;99.90
22558;DHT22;11445;53.816;8.902;2022-10-16T05:21:26;12.50;99.90
22558;DHT22;11445;53.816;8.902;2022-10-16T05:23:54;12.50;99.90
22558;DHT22;11445;53.816;8.902;2022-10-16T05:26:22;12.50;99.90
22558;DHT22;11445;53.816;8.902;2022-10-16T05:28:49;12.50;99.90
22558;DHT22;11445;53.816;8.902;2022-10-16T05:31:16;12.50;99.90
22558;DHT22;11445;53.816;8.902;2022-10-16T05:33:43;12.50;99.90
22558;DHT22;11445;53.816;8.902;2022-10-16T05:36:10;12.50;99.90
22558;DHT22;11445;53.816;8.902;2022-10-16T05:38:38;12.50;99.90
22558;DHT22;11445;53.816;8.902;2022-10-16T05:41:07;12.50;99.90
22558;DHT22;11445;53.816;8.902;2022-10-16T05:43:34;12.50;99.90
22558;DHT22;11445;53.816;8.902;2022-10-16T05:46:03;12.50;99.90
22558;DHT22;11445;53.816;8.902;2022-10-16T05:48:31;12.50;99.90
22558;DHT22;11445;53.816;8.902;2022-10-16T05:50:58;12.50;99.90
22558;DHT22;11445;53.816;8.902;2022-10-16T05:53:27;12.50;99.90
22558;DHT22;11445;53.816;8.902;2022-10-16T05:55:55;12.50;99.90
22558;DHT22;11445;53.816;8.902;2022-10-16T05:58:25;12.50;99.90
22558;DHT22;11445;53.816;8.902;2022-10-16T06:00:56;12.50;99.90
22558;DHT22;11445;53.816;8.902;2022-10-16T06:03:23;12.60;99.90
22558;DHT22;11445;53.816;8.902;2022-10-16T06:05:51;12.60;99.90
22558;DHT22;11445;53.816;8.902;2022-10-16T06:08:18;12.60;99.90
22558;DHT22;11445;53.816;8.902;2022-10-16T06:10:45;12.60;99.90
22558;DHT22;11445;53.816;8.902;2022-10-16T06:13:13;12.60;99.90
22558;DHT22;11445;53.816;8.902;2022-10-16T06:15:42;12.60;99.90
22558;DHT22;11445;53.816;8.902;2022-10-16T06:18:09;12.60;99.90
22558;DHT22;11445;53.816;8.902;2022-10-16T06:20:37;12.60;99.90
22558;DHT22;11445;53.816;8.902;2022-10-16T06:23:04;12.60;99.90
22558;DHT22;11445;53.816;8.902;2022-10-16T06:25:31;12.60;99.90
22558;DHT22;11445;53.816;8.902;2022-10-16T06:27:58;12.60;99.90
22558;DHT22;11445;53.816;8.902;2022-10-16T06:30:25;12.60;99.90
22558;DHT22;11445;53.816;8.902;2022-10-16T06:32:53;12.70;99.90
22558;DHT22;11445;53.816;8.902;2022-10-16T06:35:20;12.60;99.90
22558;DHT22;11445;53.816;8.902;2022-10-16T06:37:47;12.70;99.90
22558;DHT22;11445;53.816;8.902;2022-10-16T06:40:15;12.70;99.90
22558;DHT22;11445;53.816;8.902;2022-10-16T06:42:42;12.60;99.90
22558;DHT22;11445;53.816;8.902;2022-10-16T06:45:09;12.70;99.90
22558;DHT22;11445;53.816;8.902;2022-10-16T06:47:36;12.70;99.90
22558;DHT22;11445;53.816;8.902;2022-10-16T06:50:06;12.60;99.90
22558;DHT22;11445;53.816;8.902;2022-10-16T06:52:33;12.70;99.90
22558;DHT22;11445;53.816;8.902;2022-10-16T06:55:00;12.70;99.90
22558;DHT22;11445;53.816;8.902;2022-10-16T06:57:28;12.80;99.90
22558;DHT22;11445;53.816;8.902;2022-10-16T06:59:55;12.80;99.90
22558;DHT22;11445;53.816;8.902;2022-10-16T07:02:22;12.90;99.90
22558;DHT22;11445;53.816;8.902;2022-10-16T07:04:49;13.00;99.90
22558;DHT22;11445;53.816;8.902;2022-10-16T07:07:17;13.00;99.90
22558;DHT22;11445;53.816;8.902;2022-10-16T07:09:44;13.10;99.90
22558;DHT22;11445;53.816;8.902;2022-10-16T07:12:11;13.10;99.90
22558;DHT22;11445;53.816;8.902;2022-10-16T07:14:38;13.20;99.90
22558;DHT22;11445;53.816;8.902;2022-10-16T07:17:05;13.20;99.90
22558;DHT22;11445;53.816;8.902;2022-10-16T07:19:32;13.30;99.90
22558;DHT22;11445;53.816;8.902;2022-10-16T07:21:59;13.30;99.90
22558;DHT22;11445;53.816;8.902;2022-10-16T07:24:28;13.30;99.90
22558;DHT22;11445;53.816;8.902;2022-10-16T07:26:55;13.40;99.90
22558;DHT22;11445;53.816;8.902;2022-10-16T07:29:22;13.40;99.90
22558;DHT22;11445;53.816;8.902;2022-10-16T07:31:49;13.40;99.90
22558;DHT22;11445;53.816;8.902;2022-10-16T07:34:17;13.40;99.90
22558;DHT22;11445;53.816;8.902;2022-10-16T07:36:47;13.40;99.90
22558;DHT22;11445;53.816;8.902;2022-10-16T07:39:14;13.40;99.90
22558;DHT22;11445;53.816;8.902;2022-10-16T07:41:42;13.50;99.90
22558;DHT22;11445;53.816;8.902;2022-10-16T07:44:09;13.50;99.90
22558;DHT22;11445;53.816;8.902;2022-10-16T07:46:36;13.50;99.90
22558;DHT22;11445;53.816;8.902;2022-10-16T07:49:04;13.50;99.90
22558;DHT22;11445;53.816;8.902;2022-10-16T07:51:31;13.50;99.90
22558;DHT22;11445;53.816;8.902;2022-10-16T07:53:58;13.60;99.90
22558;DHT22;11445;53.816;8.902;2022-10-16T07:56:25;13.60;99.90
22558;DHT22;11445;53.816;8.902;2022-10-16T07:58:53;13.60;99.90
22558;DHT22;11445;53.816;8.902;2022-10-16T08:01:21;13.60;99.90
22558;DHT22;11445;53.816;8.902;2022-10-16T08:03:49;13.70;99.90
22558;DHT22;11445;53.816;8.902;2022-10-16T08:06:18;13.70;99.90
22558;DHT22;11445;53.816;8.902;2022-10-16T08:08:45;13.80;99.90
22558;DHT22;11445;53.816;8.902;2022-10-16T08:11:13;13.80;99.90
22558;DHT22;11445;53.816;8.902;2022-10-16T08:13:41;13.80;99.90
22558;DHT22;11445;53.816;8.902;2022-10-16T08:16:09;13.90;99.90
22558;DHT22;11445;53.816;8.902;2022-10-16T08:18:38;14.00;99.90
22558;DHT22;11445;53.816;8.902;2022-10-16T08:21:06;14.00;99.90
22558;DHT22;11445;53.816;8.902;2022-10-16T08:23:33;14.00;99.90
22558;DHT22;11445;53.816;8.902;2022-10-16T08:26:04;14.10;99.90
22558;DHT22;11445;53.816;8.902;2022-10-16T08:28:31;14.10;99.90
22558;DHT22;11445;53.816;8.902;2022-10-16T08:31:05;14.10;99.90
22558;DHT22;11445;53.816;8.902;2022-10-16T08:33:34;14.10;99.90
22558;DHT22;11445;53.816;8.902;2022-10-16T08:36:02;14.00;99.90
22558;DHT22;11445;53.816;8.902;2022-10-16T08:38:29;14.00;99.90
22558;DHT22;11445;53.816;8.902;2022-10-16T08:41:09;14.00;99.90
22558;DHT22;11445;53.816;8.902;2022-10-16T08:47:12;13.90;99.90
22558;DHT22;11445;53.816;8.902;2022-10-16T08:49:43;14.00;99.90
22558;DHT22;11445;53.816;8.902;2022-10-16T08:52:14;14.00;99.90
22558;DHT22;11445;53.816;8.902;2022-10-16T08:54:45;14.00;99.90
22558;DHT22;11445;53.816;8.902;2022-10-16T08:57:15;14.10;99.90
22558;DHT22;11445;53.816;8.902;2022-10-16T08:59:44;14.20;99.90
22558;DHT22;11445;53.816;8.902;2022-10-16T09:02:24;14.20;99.90
22558;DHT22;11445;53.816;8.902;2022-10-16T09:04:59;14.30;99.90
22558;DHT22;11445;53.816;8.902;2022-10-16T09:07:34;14.40;99.90
22558;DHT22;11445;53.816;8.902;2022-10-16T09:10:15;14.40;99.90
22558;DHT22;11445;53.816;8.902;2022-10-16T09:12:51;14.50;99.90
22558;DHT22;11445;53.816;8.902;2022-10-16T09:15:26;14.60;99.90
22558;DHT22;11445;53.816;8.902;2022-10-16T09:18:01;14.60;99.90
22558;DHT22;11445;53.816;8.902;2022-10-16T09:20:38;14.70;99.90
22558;DHT22;11445;53.816;8.902;2022-10-16T09:23:17;14.80;99.90
22558;DHT22;11445;53.816;8.902;2022-10-16T09:25:47;14.90;99.90
22558;DHT22;11445;53.816;8.902;2022-10-16T09:28:15;14.90;99.90
22558;DHT22;11445;53.816;8.902;2022-10-16T09:30:42;15.00;99.90
22558;DHT22;11445;53.816;8.902;2022-10-16T09:33:11;15.20;99.90
22558;DHT22;11445;53.816;8.902;2022-10-16T09:35:42;15.30;99.90
22558;DHT22;11445;53.816;8.902;2022-10-16T09:38:21;15.20;99.90
22558;DHT22;11445;53.816;8.902;2022-10-16T09:40:48;15.30;99.90
22558;DHT22;11445;53.816;8.902;2022-10-16T09:43:21;15.30;99.90
22558;DHT22;11445;53.816;8.902;2022-10-16T09:46:00;15.30;99.90
22558;DHT22;11445;53.816;8.902;2022-10-16T09:48:32;15.30;99.90
22558;DHT22;11445;53.816;8.902;2022-10-16T09:51:04;15.30;99.90
22558;DHT22;11445;53.816;8.902;2022-10-16T09:53:42;15.40;99.90
22558;DHT22;11445;53.816;8.902;2022-10-16T09:56:10;15.50;99.90
22558;DHT22;11445;53.816;8.902;2022-10-16T09:58:42;15.60;99.90
22558;DHT22;11445;53.816;8.902;2022-10-16T10:01:13;15.60;99.90
22558;DHT22;11445;53.816;8.902;2022-10-16T10:03:43;15.60;99.90
22558;DHT22;11445;53.816;8.902;2022-10-16T10:06:23;15.70;99.90
22558;DHT22;11445;53.816;8.902;2022-10-16T10:09:15;15.60;99.90
22558;DHT22;11445;53.816;8.902;2022-10-16T10:11:51;15.60;99.90
22558;DHT22;11445;53.816;8.902;2022-10-16T10:14:24;15.60;99.90
22558;DHT22;11445;53.816;8.902;2022-10-16T10:16:52;15.60;99.90
22558;DHT22;11445;53.816;8.902;2022-10-16T10:19:21;15.60;99.90
22558;DHT22;11445;53.816;8.902;2022-10-16T10:21:50;15.70;99.90
22558;DHT22;11445;53.816;8.902;2022-10-16T10:24:19;15.70;99.90
22558;DHT22;11445;53.816;8.902;2022-10-16T10:26:51;15.80;99.90
22558;DHT22;11445;53.816;8.902;2022-10-16T10:29:32;15.90;99.90
22558;DHT22;11445;53.816;8.902;2022-10-16T10:32:12;16.00;99.90
22558;DHT22;11445;53.816;8.902;2022-10-16T10:34:56;16.00;99.90
22558;DHT22;11445;53.816;8.902;2022-10-16T10:37:37;16.10;99.90
22558;DHT22;11445;53.816;8.902;2022-10-16T10:40:15;16.10;99.90
22558;DHT22;11445;53.816;8.902;2022-10-16T10:42:50;16.10;99.90
22558;DHT22;11445;53.816;8.902;2022-10-16T10:45:26;16.10;99.90
22558;DHT22;11445;53.816;8.902;2022-10-16T10:47:57;16.10;99.90
22558;DHT22;11445;53.816;8.902;2022-10-16T10:50:33;16.20;99.90
22558;DHT22;11445;53.816;8.902;2022-10-16T10:53:22;16.20;99.90
22558;DHT22;11445;53.816;8.902;2022-10-16T10:55:58;16.20;99.90
22558;DHT22;11445;53.816;8.902;2022-10-16T10:58:50;16.20;99.90
22558;DHT22;11445;53.816;8.902;2022-10-16T11:01:28;16.20;99.90
22558;DHT22;11445;53.816;8.902;2022-10-16T11:06:59;16.20;99.90
22558;DHT22;11445;53.816;8.902;2022-10-16T11:09:34;16.10;99.90
22558;DHT22;11445;53.816;8.902;2022-10-16T11:12:06;16.20;99.90
22558;DHT22;11445;53.816;8.902;2022-10-16T11:14:40;16.10;99.90
22558;DHT22;11445;53.816;8.902;2022-10-16T11:17:13;16.20;99.90
22558;DHT22;11445;53.816;8.902;2022-10-16T11:19:45;16.30;99.90
22558;DHT22;11445;53.816;8.902;2022-10-16T11:22:17;16.30;99.90
22558;DHT22;11445;53.816;8.902;2022-10-16T11:24:51;16.30;99.90
22558;DHT22;11445;53.816;8.902;2022-10-16T11:27:23;16.30;99.90
22558;DHT22;11445;53.816;8.902;2022-10-16T11:29:56;16.30;99.90
22558;DHT22;11445;53.816;8.902;2022-10-16T11:32:28;16.20;99.90
22558;DHT22;11445;53.816;8.902;2022-10-16T11:35:02;16.20;99.90
22558;DHT22;11445;53.816;8.902;2022-10-16T11:37:35;16.30;99.90
22558;DHT22;11445;53.816;8.902;2022-10-16T11:40:16;16.40;99.90
22558;DHT22;11445;53.816;8.902;2022-10-16T11:42:50;16.40;99.90
22558;DHT22;11445;53.816;8.902;2022-10-16T11:45:26;16.50;99.90
22558;DHT22;11445;53.816;8.902;2022-10-16T11:48:00;16.60;99.90
22558;DHT22;11445;53.816;8.902;2022-10-16T11:50:32;16.60;99.90
22558;DHT22;11445;53.816;8.902;2022-10-16T11:53:04;16.60;99.90
22558;DHT22;11445;53.816;8.902;2022-10-16T11:55:40;16.60;99.90
22558;DHT22;11445;53.816;8.902;2022-10-16T11:58:15;16.60;99.90
22558;DHT22;11445;53.816;8.902;2022-10-16T12:00:47;16.60;99.90
22558;DHT22;11445;53.816;8.902;2022-10-16T12:03:22;16.60;99.90
22558;DHT22;11445;53.816;8.902;2022-10-16T12:08:43;16.50;99.90
22558;DHT22;11445;53.816;8.902;2022-10-16T12:11:30;16.50;99.90
22558;DHT22;11445;53.816;8.902;2022-10-16T12:14:05;16.60;99.90
22558;DHT22;11445;53.816;8.902;2022-10-16T12:16:32;16.60;99.90
22558;DHT22;11445;53.816;8.902;2022-10-16T12:19:11;16.60;99.90
22558;DHT22;11445;53.816;8.902;2022-10-16T12:21:38;16.60;99.90
22558;DHT22;11445;53.816;8.902;2022-10-16T12:24:06;16.60;99.90
22558;DHT22;11445;53.816;8.902;2022-10-16T12:26:49;16.70;99.90
22558;DHT22;11445;53.816;8.902;2022-10-16T12:29:26;16.80;99.90
22558;DHT22;11445;53.816;8.902;2022-10-16T12:31:55;16.80;99.90
22558;DHT22;11445;53.816;8.902;2022-10-16T12:34:27;16.90;99.90
22558;DHT22;11445;53.816;8.902;2022-10-16T12:36:55;16.90;99.90
22558;DHT22;11445;53.816;8.902;2022-10-16T12:39:23;16.90;99.90
22558;DHT22;11445;53.816;8.902;2022-10-16T12:42:02;16.90;99.90
22558;DHT22;11445;53.816;8.902;2022-10-16T12:44:34;16.90;99.90
22558;DHT22;11445;53.816;8.902;2022-10-16T12:47:02;17.00;99.90
22558;DHT22;11445;53.816;8.902;2022-10-16T12:49:32;17.00;99.90
22558;DHT22;11445;53.816;8.902;2022-10-16T12:52:01;17.00;99.90
22558;DHT22;11445;53.816;8.902;2022-10-16T12:54:30;17.00;99.90
22558;DHT22;11445;53.816;8.902;2022-10-16T12:57:19;17.00;99.90
22558;DHT22;11445;53.816;8.902;2022-10-16T12:59:56;17.00;99.90
22558;DHT22;11445;53.816;8.902;2022-10-16T13:05:46;17.00;99.90
22558;DHT22;11445;53.816;8.902;2022-10-16T13:08:29;16.90;99.90
22558;DHT22;11445;53.816;8.902;2022-10-16T13:11:07;16.80;99.90
22558;DHT22;11445;53.816;8.902;2022-10-16T13:13:59;16.80;99.90
22558;DHT22;11445;53.816;8.902;2022-10-16T13:16:30;16.90;99.90
22558;DHT22;11445;53.816;8.902;2022-10-16T13:19:11;16.90;99.90
22558;DHT22;11445;53.816;8.902;2022-10-16T13:21:48;17.00;99.90
22558;DHT22;11445;53.816;8.902;2022-10-16T13:24:29;17.00;99.90
22558;DHT22;11445;53.816;8.902;2022-10-16T13:27:03;17.00;99.90
22558;DHT22;11445;53.816;8.902;2022-10-16T13:29:33;17.10;99.90
22558;DHT22;11445;53.816;8.902;2022-10-16T13:32:11;17.10;99.90
22558;DHT22;11445;53.816;8.902;2022-10-16T13:34:45;17.10;99.90
22558;DHT22;11445;53.816;8.902;2022-10-16T13:37:20;17.20;99.90
22558;DHT22;11445;53.816;8.902;2022-10-16T13:39:48;17.20;99.90
22558;DHT22;11445;53.816;8.902;2022-10-16T13:42:21;17.20;99.90
22558;DHT22;11445;53.816;8.902;2022-10-16T13:44:51;17.20;99.90
22558;DHT22;11445;53.816;8.902;2022-10-16T13:47:20;17.20;99.90
22558;DHT22;11445;53.816;8.902;2022-10-16T13:49:58;17.10;99.90
22558;DHT22;11445;53.816;8.902;2022-10-16T13:52:25;17.10;99.90
22558;DHT22;11445;53.816;8.902;2022-10-16T13:54:52;17.00;99.90
22558;DHT22;11445;53.816;8.902;2022-10-16T13:57:22;17.00;99.90
22558;DHT22;11445;53.816;8.902;2022-10-16T13:59:51;16.90;99.90
22558;DHT22;11445;53.816;8.902;2022-10-16T14:02:22;16.90;99.90
22558;DHT22;11445;53.816;8.902;2022-10-16T14:04:51;16.90;99.90
22558;DHT22;11445;53.816;8.902;2022-10-16T14:07:23;16.90;99.90
22558;DHT22;11445;53.816;8.902;2022-10-16T14:09:51;16.90;99.90
22558;DHT22;11445;53.816;8.902;2022-10-16T14:12:19;16.80;99.90
22558;DHT22;11445;53.816;8.902;2022-10-16T14:14:48;16.80;99.90
22558;DHT22;11445;53.816;8.902;2022-10-16T14:17:19;16.70;99.90
22558;DHT22;11445;53.816;8.902;2022-10-16T14:19:47;16.70;99.90
22558;DHT22;11445;53.816;8.902;2022-10-16T14:22:26;16.60;99.90
22558;DHT22;11445;53.816;8.902;2022-10-16T14:24:55;16.60;99.90
22558;DHT22;11445;53.816;8.902;2022-10-16T14:27:28;16.60;99.90
22558;DHT22;11445;53.816;8.902;2022-10-16T14:30:16;16.60;99.90
22558;DHT22;11445;53.816;8.902;2022-10-16T14:32:55;16.60;99.90
22558;DHT22;11445;53.816;8.902;2022-10-16T14:35:25;16.60;99.90
22558;DHT22;11445;53.816;8.902;2022-10-16T14:37:53;16.60;99.90
22558;DHT22;11445;53.816;8.902;2022-10-16T14:40:23;16.60;99.90
22558;DHT22;11445;53.816;8.902;2022-10-16T14:42:50;16.60;99.90
22558;DHT22;11445;53.816;8.902;2022-10-16T14:45:19;16.50;99.90
22558;DHT22;11445;53.816;8.902;2022-10-16T14:47:50;16.50;99.90
22558;DHT22;11445;53.816;8.902;2022-10-16T14:50:20;16.50;99.90
22558;DHT22;11445;53.816;8.902;2022-10-16T14:52:47;16.60;99.90
22558;DHT22;11445;53.816;8.902;2022-10-16T14:55:14;16.60;99.90
22558;DHT22;11445;53.816;8.902;2022-10-16T14:57:42;16.60;99.90
22558;DHT22;11445;53.816;8.902;2022-10-16T15:00:16;16.60;99.90
22558;DHT22;11445;53.816;8.902;2022-10-16T15:02:44;16.50;99.90
22558;DHT22;11445;53.816;8.902;2022-10-16T15:05:15;16.50;99.90
22558;DHT22;11445;53.816;8.902;2022-10-16T15:07:44;16.40;99.90
22558;DHT22;11445;53.816;8.902;2022-10-16T15:10:12;16.40;99.90
22558;DHT22;11445;53.816;8.902;2022-10-16T15:12:39;16.40;99.90
22558;DHT22;11445;53.816;8.902;2022-10-16T15:15:25;16.40;99.90
22558;DHT22;11445;53.816;8.902;2022-10-16T15:17:53;16.40;99.90
22558;DHT22;11445;53.816;8.902;2022-10-16T15:20:22;16.30;99.90
22558;DHT22;11445;53.816;8.902;2022-10-16T15:22:51;16.30;99.90
22558;DHT22;11445;53.816;8.902;2022-10-16T15:25:30;16.20;99.90
22558;DHT22;11445;53.816;8.902;2022-10-16T15:27:58;16.10;99.90
22558;DHT22;11445;53.816;8.902;2022-10-16T15:30:25;16.10;99.90
22558;DHT22;11445;53.816;8.902;2022-10-16T15:32:53;16.00;99.90
22558;DHT22;11445;53.816;8.902;2022-10-16T15:35:20;15.90;99.90
22558;DHT22;11445;53.816;8.902;2022-10-16T15:37:47;15.80;99.90
22558;DHT22;11445;53.816;8.902;2022-10-16T15:40:18;15.70;99.90
22558;DHT22;11445;53.816;8.902;2022-10-16T15:42:46;15.60;99.90
22558;DHT22;11445;53.816;8.902;2022-10-16T15:45:13;15.50;99.90
22558;DHT22;11445;53.816;8.902;2022-10-16T15:47:41;15.50;99.90
22558;DHT22;11445;53.816;8.902;2022-10-16T15:50:10;15.40;99.90
22558;DHT22;11445;53.816;8.902;2022-10-16T15:52:38;15.30;99.90
22558;DHT22;11445;53.816;8.902;2022-10-16T15:55:06;15.30;99.90
22558;DHT22;11445;53.816;8.902;2022-10-16T15:57:35;15.20;99.90
22558;DHT22;11445;53.816;8.902;2022-10-16T16:00:05;15.20;99.90
22558;DHT22;11445;53.816;8.902;2022-10-16T16:02:33;15.10;99.90